| time (UTC) | temp F | wind direction | speed knots | gust knots | rain 1hr in | rain 24hr in | rain mn in | humidity % | barometer mb |
| 20260510225444 | 80 | 261 | 1.7 | 2.6 | 0.00 | 0.02 | 0.02 | 71 | 1015.8 |
| 20260510224944 | 80 | 174 | 0.9 | 2.6 | 0.00 | 0.02 | 0.02 | 72 | 1016.0 |
| 20260510224441 | 80 | 136 | 0.9 | 1.7 | 0.00 | 0.02 | 0.02 | 71 | 1015.8 |
| 20260510223937 | 81 | 106 | 0.0 | 0.9 | 0.00 | 0.02 | 0.02 | 70 | 1015.9 |
| 20260510223435 | 81 | 199 | 2.6 | 3.5 | 0.00 | 0.02 | 0.02 | 69 | 1016.1 |
| 20260510222932 | 81 | 226 | 1.7 | 2.6 | 0.00 | 0.02 | 0.02 | 70 | 1015.9 |
| 20260510222430 | 81 | 142 | 2.6 | 6.1 | 0.00 | 0.02 | 0.02 | 69 | 1016.1 |
| 20260510221926 | 81 | 227 | 0.0 | 0.0 | 0.00 | 0.02 | 0.02 | 71 | 1016.0 |
| 20260510221422 | 81 | 310 | 0.9 | 1.7 | 0.00 | 0.02 | 0.02 | 71 | 1015.8 |
| 20260510220918 | 81 | 125 | 0.0 | 0.9 | 0.00 | 0.02 | 0.02 | 71 | 1015.8 |
| 20260510220414 | 81 | 51 | 2.6 | 3.5 | 0.00 | 0.02 | 0.02 | 72 | 1015.9 |
| 20260510215910 | 81 | 110 | 1.7 | 1.7 | 0.00 | 0.02 | 0.02 | 73 | 1016.0 |
| 20260510215408 | 80 | 95 | 0.9 | 0.9 | 0.00 | 0.02 | 0.02 | 74 | 1015.9 |
| 20260510214906 | 81 | 133 | 1.7 | 1.7 | 0.00 | 0.02 | 0.02 | 74 | 1015.9 |
| 20260510214403 | 81 | 174 | 2.6 | 5.2 | 0.00 | 0.02 | 0.02 | 74 | 1016.0 |
| 20260510213900 | 82 | 173 | 0.0 | 0.9 | 0.00 | 0.02 | 0.02 | 74 | 1016.0 |
| 20260510213357 | 81 | 273 | 3.5 | 5.2 | 0.00 | 0.02 | 0.02 | 75 | 1015.7 |
| 20260510212853 | 81 | 232 | 0.9 | 1.7 | 0.00 | 0.02 | 0.02 | 75 | 1015.9 |
| 20260510212350 | 81 | 104 | 1.7 | 2.6 | 0.00 | 0.02 | 0.02 | 74 | 1016.1 |
| 20260510211847 | 81 | 104 | 1.7 | 2.6 | 0.00 | 0.02 | 0.02 | 74 | 1016.1 |
| 20260510211343 | 82 | 162 | 2.6 | 3.5 | 0.00 | 0.02 | 0.02 | 71 | 1016.0 |
| 20260510210838 | 82 | 119 | 0.9 | 0.9 | 0.00 | 0.02 | 0.02 | 72 | 1016.0 |
| 20260510210334 | 83 | 350 | 0.9 | 0.9 | 0.00 | 0.02 | 0.02 | 71 | 1015.8 |
| 20260510205833 | 83 | 211 | 1.7 | 2.6 | 0.00 | 0.02 | 0.02 | 72 | 1015.9 |
| 20260510205329 | 83 | 312 | 2.6 | 2.6 | 0.00 | 0.02 | 0.02 | 72 | 1015.8 |
| 20260510204825 | 82 | 120 | 0.9 | 2.6 | 0.00 | 0.02 | 0.02 | 74 | 1015.8 |
| 20260510204321 | 81 | 284 | 3.5 | 3.5 | 0.00 | 0.02 | 0.02 | 75 | 1015.8 |
| 20260510203818 | 82 | 58 | 0.9 | 0.9 | 0.00 | 0.02 | 0.02 | 74 | 1016.0 |
| 20260510203316 | 82 | 269 | 2.6 | 2.6 | 0.00 | 0.02 | 0.02 | 74 | 1016.0 |
| 20260510202816 | 82 | 122 | 1.7 | 1.7 | 0.00 | 0.02 | 0.02 | 73 | 1016.0 |
| 20260510202312 | 83 | 28 | 0.0 | 0.0 | 0.00 | 0.02 | 0.02 | 72 | 1016.0 |
| 20260510201809 | 83 | 261 | 1.7 | 2.6 | 0.00 | 0.02 | 0.02 | 73 | 1015.8 |
| 20260510201305 | 83 | 123 | 2.6 | 2.6 | 0.00 | 0.02 | 0.02 | 74 | 1015.9 |
| 20260510200802 | 83 | 288 | 1.7 | 1.7 | 0.00 | 0.02 | 0.02 | 74 | 1015.6 |
| 20260510200300 | 82 | 149 | 1.7 | 2.6 | 0.00 | 0.02 | 0.02 | 75 | 1015.7 |
| 20260510195756 | 82 | 81 | 1.7 | 2.6 | 0.00 | 0.02 | 0.02 | 76 | 1015.8 |
| 20260510195253 | 81 | 141 | 1.7 | 3.5 | 0.00 | 0.02 | 0.02 | 76 | 1016.0 |
| 20260510194752 | 82 | 148 | 1.7 | 1.7 | 0.00 | 0.02 | 0.02 | 75 | 1016.0 |
| 20260510194249 | 82 | 268 | 1.7 | 2.6 | 0.00 | 0.02 | 0.02 | 76 | 1016.0 |
| 20260510193745 | 82 | 167 | 2.6 | 5.2 | 0.00 | 0.02 | 0.02 | 74 | 1015.9 |
| 20260510193240 | 83 | 260 | 1.7 | 1.7 | 0.00 | 0.02 | 0.02 | 76 | 1015.9 |
| 20260510192736 | 82 | 195 | 1.7 | 2.6 | 0.00 | 0.02 | 0.02 | 77 | 1015.8 |
| 20260510192231 | 83 | 232 | 1.7 | 2.6 | 0.00 | 0.02 | 0.02 | 77 | 1015.9 |
| 20260510191728 | 82 | 120 | 0.0 | 0.0 | 0.00 | 0.02 | 0.02 | 77 | 1015.8 |
| 20260510191224 | 81 | 267 | 0.9 | 1.7 | 0.00 | 0.02 | 0.02 | 78 | 1015.9 |
| 20260510190721 | 80 | 236 | 3.5 | 3.5 | 0.00 | 0.02 | 0.02 | 77 | 1016.2 |
| 20260510190218 | 82 | 227 | 1.7 | 3.5 | 0.00 | 0.02 | 0.02 | 75 | 1016.2 |
| 20260510185715 | 83 | 223 | 3.5 | 5.2 | 0.00 | 0.02 | 0.02 | 76 | 1016.1 |
| 20260510185214 | 82 | 262 | 3.5 | 6.1 | 0.00 | 0.02 | 0.02 | 76 | 1016.1 |
| 20260510184710 | 81 | 187 | 3.5 | 5.2 | 0.00 | 0.02 | 0.02 | 76 | 1016.3 |
| 20260510184207 | 81 | 273 | 1.7 | 2.6 | 0.00 | 0.02 | 0.02 | 77 | 1016.3 |
| 20260510183701 | 81 | 307 | 4.3 | 6.1 | 0.00 | 0.02 | 0.02 | 76 | 1016.4 |
| 20260510183156 | 80 | 253 | 1.7 | 2.6 | 0.00 | 0.02 | 0.02 | 78 | 1016.7 |
| 20260510182653 | 82 | 241 | 2.6 | 2.6 | 0.00 | 0.02 | 0.02 | 76 | 1016.7 |
| 20260510182149 | 82 | 163 | 3.5 | 5.2 | 0.00 | 0.02 | 0.02 | 76 | 1016.6 |
| 20260510181647 | 83 | 187 | 2.6 | 5.2 | 0.00 | 0.02 | 0.02 | 76 | 1016.9 |
| 20260510181143 | 84 | 241 | 4.3 | 6.1 | 0.00 | 0.02 | 0.02 | 72 | 1016.7 |
| 20260510180638 | 82 | 246 | 2.6 | 3.5 | 0.00 | 0.02 | 0.02 | 70 | 1016.9 |
| 20260510180136 | 82 | 74 | 0.0 | 0.0 | 0.00 | 0.02 | 0.02 | 71 | 1016.9 |
| 20260510175632 | 81 | 10 | 0.9 | 0.9 | 0.00 | 0.02 | 0.02 | 71 | 1016.9 |
| 20260510175128 | 81 | 344 | 0.9 | 0.9 | 0.00 | 0.02 | 0.02 | 70 | 1017.0 |
| 20260510174626 | 83 | 187 | 1.7 | 1.7 | 0.00 | 0.02 | 0.02 | 68 | 1017.0 |
| 20260510174123 | 83 | 59 | 0.0 | 0.0 | 0.00 | 0.02 | 0.02 | 70 | 1016.9 |
| 20260510173619 | 82 | 63 | 0.0 | 0.0 | 0.00 | 0.02 | 0.02 | 71 | 1016.9 |
| 20260510173115 | 83 | 310 | 0.0 | 0.0 | 0.00 | 0.02 | 0.02 | 71 | 1017.1 |
| 20260510172611 | 83 | 69 | 0.0 | 0.0 | 0.00 | 0.02 | 0.02 | 70 | 1017.2 |
| 20260510172107 | 83 | 27 | 0.9 | 1.7 | 0.00 | 0.02 | 0.02 | 69 | 1017.2 |
| 20260510171604 | 81 | 55 | 0.0 | 0.0 | 0.00 | 0.02 | 0.02 | 71 | 1017.0 |
| 20260510171102 | 82 | 81 | 0.9 | 2.6 | 0.00 | 0.02 | 0.02 | 71 | 1017.1 |
| 20260510170558 | 82 | 29 | 0.9 | 0.9 | 0.05 | 0.02 | 0.02 | 71 | 1017.2 |
| 20260510170054 | 83 | 124 | 0.9 | 1.7 | 0.05 | 0.02 | 0.02 | 70 | 1017.2 |
| 20260510165550 | 84 | 27 | 0.9 | 1.7 | 0.00 | 0.01 | 0.01 | 68 | 1017.1 |
| 20260510165046 | 83 | 19 | 2.6 | 2.6 | 0.00 | 0.01 | 0.01 | 71 | 1017.2 |
| 20260510164544 | 83 | 31 | 1.7 | 1.7 | 0.00 | 0.01 | 0.01 | 70 | 1017.5 |
| 20260510164040 | 82 | 120 | 0.0 | 0.9 | 0.00 | 0.01 | 0.01 | 72 | 1017.3 |
| 20260510163535 | 82 | 69 | 0.9 | 1.7 | 0.00 | 0.01 | 0.01 | 73 | 1017.3 |
| 20260510163032 | 81 | 45 | 0.0 | 0.9 | 0.00 | 0.01 | 0.01 | 74 | 1017.2 |
| 20260510162527 | 81 | 49 | 0.0 | 0.0 | 0.00 | 0.01 | 0.01 | 74 | 1017.3 |
| 20260510162024 | 81 | 32 | 1.7 | 2.6 | 0.00 | 0.01 | 0.01 | 75 | 1017.3 |
| 20260510161520 | 80 | 34 | 1.7 | 1.7 | 0.00 | 0.01 | 0.01 | 73 | 1017.1 |
| 20260510161017 | 81 | 29 | 4.3 | 5.2 | 0.00 | 0.01 | 0.01 | 75 | 1017.1 |
| 20260510160514 | 81 | 37 | 1.7 | 1.7 | 0.00 | 0.01 | 0.01 | 74 | 1017.3 |
| 20260510160014 | 81 | 43 | 0.9 | 0.9 | 0.00 | 0.01 | 0.01 | 73 | 1017.2 |
| 20260510155510 | 81 | 102 | 0.0 | 0.0 | 0.00 | 0.01 | 0.01 | 78 | 1017.1 |
| 20260510155007 | 81 | 123 | 0.9 | 2.6 | 0.00 | 0.01 | 0.01 | 76 | 1017.1 |
| 20260510154503 | 80 | 124 | 0.0 | 0.0 | 0.00 | 0.01 | 0.01 | 80 | 1017.2 |
| 20260510154002 | 80 | 141 | 0.0 | 0.0 | 0.00 | 0.01 | 0.01 | 77 | 1017.3 |
| 20260510153458 | 79 | 63 | 1.7 | 1.7 | 0.00 | 0.01 | 0.01 | 82 | 1017.2 |
| 20260510152955 | 78 | 58 | 0.9 | 1.7 | 0.00 | 0.01 | 0.01 | 83 | 1017.1 |
| 20260510152452 | 77 | 59 | 0.9 | 2.6 | 0.00 | 0.01 | 0.01 | 86 | 1017.0 |
| 20260510151948 | 77 | 102 | 0.9 | 1.7 | 0.00 | 0.01 | 0.01 | 88 | 1017.2 |
| 20260510151445 | 76 | 25 | 1.7 | 1.7 | 0.00 | 0.01 | 0.01 | 88 | 1017.1 |
| 20260510150942 | 76 | 39 | 1.7 | 2.6 | 0.00 | 0.01 | 0.01 | 89 | 1017.2 |
| 20260510150438 | 77 | 73 | 2.6 | 2.6 | 0.00 | 0.01 | 0.01 | 91 | 1017.3 |
| 20260510145934 | 76 | 50 | 1.7 | 3.5 | 0.00 | 0.01 | 0.01 | 93 | 1017.2 |
| 20260510145430 | 75 | 110 | 0.9 | 0.9 | 0.00 | 0.01 | 0.01 | 96 | 1017.4 |
| 20260510144927 | 75 | 21 | 2.6 | 2.6 | 0.00 | 0.01 | 0.01 | 95 | 1017.3 |
| 20260510144419 | 75 | 133 | 0.9 | 0.9 | 0.00 | 0.01 | 0.01 | 97 | 1017.4 |
| 20260510143918 | 74 | 52 | 1.7 | 1.7 | 0.00 | 0.01 | 0.01 | 97 | 1017.6 |
| 20260510143415 | 73 | 39 | 0.9 | 1.7 | 0.00 | 0.01 | 0.01 | 98 | 1017.3 |
| 20260510142912 | 73 | 38 | 0.9 | 1.7 | 0.00 | 0.01 | 0.01 | 97 | 1017.5 |
| 20260510142403 | 73 | 49 | 0.9 | 1.7 | 0.00 | 0.01 | 0.01 | 99 | 1017.3 |
| 20260510141859 | 73 | 56 | 0.0 | 0.9 | 0.00 | 0.01 | 0.01 | 98 | 1017.4 |
| 20260510141357 | 72 | 31 | 0.9 | 0.9 | 0.00 | 0.01 | 0.01 | 99 | 1017.3 |
| 20260510140853 | 71 | 34 | 0.9 | 1.7 | 0.00 | 0.01 | 0.01 | 99 | 1017.2 |
| 20260510140350 | 71 | 25 | 1.7 | 2.6 | 0.00 | 0.01 | 0.01 | 99 | 1017.2 |
| 20260510135848 | 72 | 53 | 0.9 | 0.9 | 0.00 | 0.01 | 0.01 | 99 | 1017.3 |
| 20260510135345 | 71 | 71 | 0.0 | 0.0 | 0.00 | 0.01 | 0.01 | 99 | 1017.1 |
| 20260510134842 | 71 | 77 | 0.9 | 1.7 | 0.00 | 0.01 | 0.01 | 99 | 1017.1 |
| 20260510134339 | 71 | 36 | 1.7 | 1.7 | 0.00 | 0.01 | 0.01 | 99 | 1017.2 |
| 20260510133835 | 69 | 48 | 0.0 | 0.0 | 0.00 | 0.01 | 0.01 | 99 | 1017.3 |
| 20260510133331 | 69 | 63 | 0.9 | 1.7 | 0.00 | 0.01 | 0.01 | 99 | 1017.3 |
| 20260510132827 | 69 | 46 | 1.7 | 1.7 | 0.00 | 0.01 | 0.01 | 99 | 1017.1 |
| 20260510132326 | 69 | 27 | 1.7 | 1.7 | 0.00 | 0.01 | 0.01 | 99 | 1017.1 |
| 20260510131822 | 69 | 103 | 0.0 | 0.0 | 0.00 | 0.01 | 0.01 | 99 | 1017.3 |
| 20260510131320 | 68 | 55 | 0.9 | 1.7 | 0.00 | 0.01 | 0.01 | 99 | 1017.2 |
| 20260510130816 | 68 | 59 | 0.0 | 0.0 | 0.00 | 0.01 | 0.01 | 99 | 1017.1 |
| 20260510130313 | 68 | 37 | 0.9 | 0.9 | 0.00 | 0.01 | 0.01 | 99 | 1016.9 |
| 20260510125809 | 68 | 44 | 1.7 | 1.7 | 0.00 | 0.01 | 0.01 | 99 | 1016.8 |
| 20260510125307 | 68 | 33 | 1.7 | 1.7 | 0.00 | 0.01 | 0.01 | 99 | 1016.9 |
| 20260510124803 | 67 | 54 | 0.9 | 0.9 | 0.00 | 0.01 | 0.01 | 99 | 1016.6 |
| 20260510124300 | 67 | 29 | 0.9 | 1.7 | 0.00 | 0.01 | 0.01 | 99 | 1016.7 |
| 20260510123755 | 67 | 45 | 2.6 | 2.6 | 0.00 | 0.01 | 0.01 | 99 | 1016.5 |
| 20260510123251 | 67 | 28 | 1.7 | 2.6 | 0.00 | 0.01 | 0.01 | 99 | 1016.6 |
| 20260510122747 | 67 | 40 | 1.7 | 1.7 | 0.00 | 0.01 | 0.01 | 99 | 1016.5 |
| 20260510122244 | 66 | 22 | 0.9 | 1.7 | 0.00 | 0.01 | 0.01 | 99 | 1016.2 |
| 20260510121740 | 66 | 66 | 0.9 | 0.9 | 0.00 | 0.01 | 0.01 | 99 | 1016.4 |
| 20260510121238 | 66 | 41 | 1.7 | 1.7 | 0.00 | 0.01 | 0.01 | 99 | 1016.0 |
| 20260510120735 | 66 | 43 | 0.9 | 0.9 | 0.00 | 0.01 | 0.01 | 99 | 1016.2 |
| 20260510120232 | 66 | 57 | 0.0 | 0.0 | 0.00 | 0.01 | 0.01 | 99 | 1015.9 |
| 20260510115727 | 65 | 57 | 0.9 | 0.9 | 0.00 | 0.01 | 0.01 | 99 | 1015.8 |
| 20260510115226 | 65 | 80 | 0.9 | 1.7 | 0.00 | 0.01 | 0.01 | 99 | 1015.8 |
| 20260510114715 | 65 | 55 | 0.9 | 0.9 | 0.00 | 0.01 | 0.01 | 99 | 1015.8 |
| 20260510114212 | 65 | 44 | 0.9 | 0.9 | 0.00 | 0.01 | 0.01 | 99 | 1015.8 |
| 20260510113707 | 65 | 37 | 0.0 | 0.0 | 0.00 | 0.01 | 0.01 | 99 | 1015.6 |
| 20260510113205 | 65 | 42 | 0.9 | 1.7 | 0.00 | 0.01 | 0.01 | 99 | 1015.6 |
| 20260510112701 | 65 | 48 | 0.0 | 0.9 | 0.00 | 0.01 | 0.01 | 99 | 1015.5 |
| 20260510112158 | 65 | 47 | 0.0 | 0.0 | 0.00 | 0.01 | 0.01 | 99 | 1015.4 |
| 20260510111653 | 65 | 38 | 0.0 | 0.0 | 0.00 | 0.01 | 0.01 | 99 | 1015.4 |
| 20260510111150 | 65 | 38 | 0.0 | 0.0 | 0.00 | 0.01 | 0.01 | 99 | 1015.3 |
| 20260510110645 | 65 | 41 | 0.0 | 0.0 | 0.00 | 0.01 | 0.01 | 99 | 1015.3 |
| 20260510110144 | 65 | 37 | 0.9 | 1.7 | 0.00 | 0.01 | 0.01 | 99 | 1015.1 |
| 20260510105639 | 65 | 26 | 1.7 | 1.7 | 0.00 | 0.01 | 0.01 | 99 | 1015.2 |
| 20260510105138 | 65 | 61 | 0.9 | 0.9 | 0.00 | 0.01 | 0.01 | 99 | 1015.3 |
| 20260510104636 | 65 | 47 | 0.0 | 0.0 | 0.00 | 0.01 | 0.01 | 99 | 1015.1 |
| 20260510104132 | 65 | 46 | 0.0 | 0.9 | 0.00 | 0.01 | 0.01 | 99 | 1014.9 |
| 20260510103629 | 65 | 60 | 0.0 | 0.0 | 0.00 | 0.01 | 0.01 | 99 | 1014.9 |
| 20260510103125 | 65 | 55 | 0.0 | 0.0 | 0.00 | 0.01 | 0.01 | 99 | 1014.8 |
| 20260510102620 | 65 | 56 | 0.0 | 0.0 | 0.00 | 0.01 | 0.01 | 99 | 1014.8 |
| 20260510102117 | 65 | 56 | 0.0 | 0.0 | 0.00 | 0.01 | 0.01 | 99 | 1014.8 |
| 20260510101615 | 65 | 48 | 0.0 | 0.9 | 0.00 | 0.01 | 0.01 | 99 | 1014.7 |
| 20260510101113 | 65 | 47 | 0.0 | 0.0 | 0.00 | 0.01 | 0.01 | 99 | 1014.5 |
| 20260510100608 | 65 | 71 | 0.0 | 0.0 | 0.00 | 0.01 | 0.01 | 99 | 1014.7 |
| 20260510100106 | 65 | 59 | 0.0 | 0.0 | 0.00 | 0.01 | 0.01 | 99 | 1014.6 |
| 20260510095602 | 66 | 59 | 0.0 | 0.0 | 0.00 | 0.01 | 0.01 | 99 | 1014.5 |
| 20260510095101 | 66 | 65 | 0.0 | 0.0 | 0.00 | 0.01 | 0.01 | 99 | 1014.5 |
| 20260510094600 | 66 | 77 | 0.0 | 0.0 | 0.00 | 0.01 | 0.01 | 99 | 1014.3 |
| 20260510094056 | 66 | 71 | 0.0 | 0.0 | 0.00 | 0.01 | 0.01 | 99 | 1014.2 |
| 20260510093553 | 66 | 78 | 0.0 | 0.0 | 0.00 | 0.01 | 0.01 | 99 | 1014.3 |
| 20260510093050 | 66 | 98 | 0.0 | 0.9 | 0.00 | 0.01 | 0.01 | 99 | 1014.2 |
| 20260510092547 | 66 | 73 | 0.0 | 0.0 | 0.00 | 0.01 | 0.01 | 99 | 1014.2 |
| 20260510092046 | 66 | 58 | 0.0 | 0.0 | 0.00 | 0.01 | 0.01 | 99 | 1014.1 |
| 20260510091543 | 66 | 63 | 0.0 | 0.0 | 0.00 | 0.01 | 0.01 | 99 | 1014.0 |
| 20260510091039 | 66 | 47 | 0.0 | 0.9 | 0.00 | 0.01 | 0.01 | 99 | 1014.1 |
| 20260510090536 | 66 | 44 | 0.9 | 0.9 | 0.00 | 0.01 | 0.01 | 99 | 1014.1 |
| 20260510090032 | 66 | 57 | 0.0 | 0.0 | 0.00 | 0.01 | 0.01 | 99 | 1014.1 |
| 20260510085527 | 66 | 42 | 0.9 | 0.9 | 0.00 | 0.01 | 0.01 | 99 | 1013.9 |
| 20260510085023 | 66 | 45 | 0.9 | 0.9 | 0.00 | 0.01 | 0.01 | 99 | 1013.9 |
| 20260510084520 | 66 | 59 | 0.9 | 0.9 | 0.00 | 0.01 | 0.01 | 99 | 1013.7 |
| 20260510084017 | 66 | 53 | 0.9 | 0.9 | 0.00 | 0.01 | 0.01 | 99 | 1013.6 |
| 20260510083513 | 66 | 35 | 0.9 | 0.9 | 0.00 | 0.01 | 0.01 | 99 | 1013.6 |
| 20260510083009 | 66 | 49 | 0.0 | 0.0 | 0.00 | 0.01 | 0.01 | 99 | 1013.8 |
| 20260510082506 | 66 | 40 | 0.0 | 0.9 | 0.00 | 0.01 | 0.01 | 99 | 1013.8 |
| 20260510082001 | 66 | 48 | 0.0 | 0.0 | 0.00 | 0.01 | 0.01 | 99 | 1013.6 |
| 20260510081456 | 66 | 60 | 0.0 | 0.0 | 0.00 | 0.01 | 0.01 | 99 | 1013.3 |
| 20260510080952 | 67 | 44 | 0.0 | 0.0 | 0.00 | 0.01 | 0.01 | 99 | 1013.3 |
| 20260510080451 | 67 | 44 | 0.0 | 0.0 | 0.00 | 0.01 | 0.01 | 99 | 1013.3 |
| 20260510075948 | 67 | 49 | 0.0 | 0.0 | 0.00 | 0.01 | 0.01 | 98 | 1013.3 |
| 20260510075446 | 67 | 46 | 0.0 | 0.9 | 0.00 | 0.01 | 0.01 | 98 | 1013.2 |
| 20260510074942 | 67 | 48 | 0.9 | 0.9 | 0.00 | 0.01 | 0.01 | 99 | 1013.1 |
| 20260510074440 | 67 | 44 | 0.9 | 0.9 | 0.00 | 0.01 | 0.01 | 98 | 1013.1 |
| 20260510073936 | 67 | 38 | 0.9 | 0.9 | 0.00 | 0.01 | 0.01 | 98 | 1013.1 |
| 20260510073432 | 67 | 45 | 0.0 | 0.9 | 0.00 | 0.01 | 0.01 | 98 | 1013.1 |
| 20260510072928 | 67 | 46 | 0.0 | 0.9 | 0.00 | 0.01 | 0.01 | 98 | 1013.0 |
| 20260510072425 | 67 | 55 | 0.0 | 0.0 | 0.07 | 0.01 | 0.01 | 98 | 1013.2 |
| 20260510071920 | 67 | 57 | 0.0 | 0.0 | 0.07 | 0.01 | 0.01 | 98 | 1013.2 |
| 20260510071417 | 67 | 66 | 0.0 | 0.0 | 0.00 | 0.00 | 0.00 | 98 | 1013.1 |
| 20260510070916 | 67 | 57 | 0.0 | 0.0 | 0.00 | 0.00 | 0.00 | 98 | 1012.9 |
| 20260510070413 | 67 | 69 | 0.9 | 1.7 | 0.00 | 0.00 | 0.00 | 98 | 1012.9 |
| 20260510065908 | 67 | 119 | 0.9 | 1.7 | 0.00 | 0.00 | 0.00 | 98 | 1012.7 |
| 20260510065404 | 67 | 111 | 0.9 | 0.9 | 0.00 | 0.00 | 0.00 | 98 | 1013.0 |
| 20260510064901 | 67 | 79 | 0.0 | 0.9 | 0.00 | 0.00 | 0.00 | 98 | 1013.1 |
| 20260510064359 | 67 | 111 | 1.7 | 2.6 | 0.00 | 0.00 | 0.00 | 98 | 1013.0 |
| 20260510063855 | 67 | 121 | 0.0 | 0.0 | 0.00 | 0.00 | 0.00 | 98 | 1013.2 |
| 20260510063352 | 67 | 51 | 0.9 | 0.9 | 0.00 | 0.00 | 0.00 | 98 | 1013.3 |
| 20260510062848 | 67 | 54 | 0.0 | 0.0 | 0.00 | 0.00 | 0.00 | 98 | 1013.4 |
| 20260510062344 | 67 | 59 | 0.0 | 0.0 | 0.00 | 0.00 | 0.00 | 98 | 1013.2 |
| 20260510061839 | 67 | 51 | 0.0 | 0.0 | 0.00 | 0.00 | 0.00 | 98 | 1013.3 |
| 20260510061336 | 67 | 67 | 0.0 | 0.0 | 0.00 | 0.00 | 0.00 | 98 | 1013.2 |
| 20260510060832 | 67 | 55 | 0.0 | 0.0 | 0.00 | 0.00 | 0.00 | 98 | 1013.4 |
| 20260510060330 | 67 | 93 | 0.0 | 0.0 | 0.00 | 0.00 | 0.00 | 98 | 1013.5 |
| 20260510055827 | 67 | 49 | 0.0 | 0.0 | 0.00 | 0.00 | 0.00 | 98 | 1013.7 |
| 20260510055325 | 67 | 72 | 0.0 | 0.0 | 0.00 | 0.00 | 0.00 | 98 | 1013.8 |
| 20260510054825 | 67 | 59 | 0.0 | 0.0 | 0.00 | 0.00 | 0.00 | 98 | 1013.8 |
| 20260510054320 | 67 | 52 | 0.0 | 0.0 | 0.00 | 0.00 | 0.00 | 98 | 1013.9 |
| 20260510053815 | 67 | 79 | 0.0 | 0.0 | 0.00 | 0.00 | 0.00 | 98 | 1013.8 |
| 20260510053312 | 67 | 75 | 0.0 | 0.0 | 0.00 | 0.00 | 0.00 | 98 | 1014.0 |
| 20260510052808 | 67 | 49 | 0.0 | 0.0 | 0.00 | 0.00 | 0.00 | 98 | 1013.7 |
| 20260510052306 | 67 | 49 | 0.0 | 0.0 | 0.00 | 0.00 | 0.00 | 98 | 1013.9 |
| 20260510051800 | 67 | 60 | 0.0 | 0.0 | 0.00 | 0.00 | 0.00 | 98 | 1014.2 |
| 20260510051257 | 68 | 59 | 0.0 | 0.0 | 0.00 | 0.00 | 0.00 | 98 | 1014.0 |
| 20260510050754 | 68 | 56 | 0.0 | 0.0 | 0.00 | 0.00 | 0.00 | 98 | 1014.1 |
| 20260510050251 | 68 | 72 | 0.0 | 0.0 | 0.00 | 0.00 | 0.00 | 98 | 1014.1 |
| 20260510045747 | 68 | 53 | 0.0 | 0.0 | 0.00 | 0.03 | 0.03 | 98 | 1014.1 |
| 20260510045244 | 68 | 51 | 0.0 | 0.0 | 0.00 | 0.03 | 0.03 | 98 | 1014.1 |
| 20260510044740 | 68 | 112 | 0.0 | 0.0 | 0.00 | 0.03 | 0.03 | 98 | 1013.9 |
| 20260510044239 | 68 | 80 | 0.0 | 0.0 | 0.00 | 0.03 | 0.03 | 98 | 1013.8 |
| 20260510043733 | 68 | 47 | 0.0 | 0.9 | 0.00 | 0.03 | 0.03 | 98 | 1013.5 |
| 20260510043231 | 68 | 41 | 0.0 | 0.0 | 0.00 | 0.03 | 0.03 | 98 | 1013.8 |
| 20260510042728 | 69 | 2 | 1.7 | 2.6 | 0.00 | 0.03 | 0.03 | 98 | 1013.8 |
| 20260510042223 | 69 | 30 | 0.9 | 1.7 | 0.00 | 0.03 | 0.03 | 98 | 1014.0 |
| 20260510041720 | 69 | 344 | 1.7 | 1.7 | 0.00 | 0.03 | 0.03 | 98 | 1014.3 |
| 20260510041218 | 69 | 48 | 0.0 | 0.9 | 0.00 | 0.03 | 0.03 | 98 | 1014.4 |
| 20260510040714 | 69 | 59 | 0.0 | 0.0 | 0.00 | 0.03 | 0.03 | 97 | 1014.2 |
| 20260510040212 | 69 | 59 | 0.0 | 0.0 | 0.00 | 0.03 | 0.03 | 97 | 1014.3 |
| 20260510035707 | 69 | 70 | 0.0 | 0.0 | 0.00 | 0.03 | 0.03 | 98 | 1014.2 |
| 20260510035203 | 69 | 80 | 0.0 | 0.0 | 0.00 | 0.03 | 0.03 | 97 | 1014.5 |
| 20260510034659 | 69 | 55 | 0.0 | 0.0 | 0.00 | 0.03 | 0.03 | 97 | 1014.6 |
| 20260510034156 | 69 | 55 | 0.0 | 0.0 | 0.00 | 0.03 | 0.03 | 97 | 1014.6 |
| 20260510033652 | 69 | 55 | 0.0 | 0.0 | 0.00 | 0.03 | 0.03 | 97 | 1014.6 |
| 20260510033150 | 69 | 47 | 0.0 | 0.0 | 0.00 | 0.03 | 0.03 | 97 | 1014.6 |
| 20260510032646 | 69 | 50 | 0.0 | 0.0 | 0.00 | 0.03 | 0.03 | 97 | 1014.4 |
| 20260510032142 | 69 | 50 | 0.0 | 0.0 | 0.00 | 0.03 | 0.03 | 97 | 1014.4 |
| 20260510031637 | 69 | 50 | 0.0 | 0.0 | 0.00 | 0.03 | 0.03 | 97 | 1014.3 |
| 20260510031135 | 69 | 44 | 0.0 | 0.0 | 0.00 | 0.03 | 0.03 | 97 | 1014.2 |
| 20260510030629 | 69 | 34 | 0.0 | 0.0 | 0.00 | 0.03 | 0.03 | 97 | 1014.3 |
| 20260510030127 | 69 | 48 | 0.0 | 0.0 | 0.00 | 0.03 | 0.03 | 97 | 1014.3 |
| 20260510025623 | 69 | 55 | 0.0 | 0.0 | 0.00 | 0.03 | 0.03 | 97 | 1014.3 |
| 20260510025121 | 69 | 44 | 0.0 | 0.0 | 0.00 | 0.03 | 0.03 | 97 | 1014.3 |
| 20260510024618 | 69 | 54 | 0.0 | 0.0 | 0.00 | 0.03 | 0.03 | 97 | 1014.0 |
| 20260510024114 | 69 | 56 | 0.0 | 0.9 | 0.00 | 0.03 | 0.03 | 97 | 1013.8 |
| 20260510023610 | 69 | 56 | 0.0 | 0.0 | 0.00 | 0.03 | 0.03 | 97 | 1013.9 |
| 20260510023108 | 69 | 50 | 0.0 | 0.0 | 0.00 | 0.03 | 0.03 | 97 | 1013.8 |
| 20260510022607 | 69 | 51 | 0.0 | 0.0 | 0.00 | 0.03 | 0.03 | 97 | 1013.8 |
| 20260510022102 | 69 | 17 | 0.9 | 0.9 | 0.00 | 0.03 | 0.03 | 97 | 1013.7 |
| 20260510021558 | 69 | 43 | 0.0 | 0.9 | 0.00 | 0.03 | 0.03 | 97 | 1013.8 |
| 20260510021055 | 69 | 30 | 0.9 | 0.9 | 0.00 | 0.03 | 0.03 | 97 | 1013.8 |
| 20260510020549 | 69 | 34 | 1.7 | 1.7 | 0.00 | 0.03 | 0.03 | 97 | 1013.7 |
| 20260510020045 | 69 | 54 | 0.0 | 0.9 | 0.00 | 0.03 | 0.03 | 97 | 1013.5 |
| 20260510015536 | 69 | 46 | 0.0 | 0.0 | 0.00 | 0.03 | 0.03 | 97 | 1013.6 |
| 20260510015032 | 69 | 49 | 0.0 | 0.0 | 0.00 | 0.03 | 0.03 | 97 | 1013.4 |
| 20260510014529 | 69 | 53 | 0.9 | 0.9 | 0.00 | 0.03 | 0.03 | 96 | 1013.4 |
| 20260510014026 | 69 | 74 | 0.0 | 0.0 | 0.00 | 0.03 | 0.03 | 96 | 1013.6 |
| 20260510013520 | 69 | 59 | 0.0 | 0.0 | 0.00 | 0.03 | 0.03 | 96 | 1013.5 |
| 20260510013016 | 69 | 81 | 0.0 | 0.0 | 0.00 | 0.03 | 0.03 | 96 | 1013.8 |
| 20260510012511 | 69 | 128 | 0.9 | 0.9 | 0.00 | 0.03 | 0.03 | 96 | 1014.0 |
| 20260510012007 | 69 | 93 | 0.0 | 0.0 | 0.00 | 0.03 | 0.03 | 96 | 1014.1 |
| 20260510011507 | 69 | 108 | 0.0 | 0.9 | 0.00 | 0.03 | 0.03 | 96 | 1014.2 |
| 20260510011003 | 69 | 94 | 0.0 | 0.9 | 0.00 | 0.03 | 0.03 | 96 | 1014.1 |
| 20260510010500 | 69 | 89 | 0.0 | 0.0 | 0.00 | 0.03 | 0.03 | 96 | 1014.3 |
| 20260510005957 | 69 | 77 | 0.0 | 0.0 | 0.00 | 0.03 | 0.03 | 96 | 1014.1 |
| 20260510005452 | 69 | 67 | 0.0 | 0.0 | 0.00 | 0.03 | 0.03 | 96 | 1014.1 |
| 20260510004950 | 69 | 38 | 0.0 | 0.9 | 0.00 | 0.03 | 0.03 | 96 | 1014.4 |
| 20260510004447 | 69 | 52 | 0.9 | 0.9 | 0.00 | 0.03 | 0.03 | 96 | 1014.4 |
| 20260510003945 | 69 | 29 | 0.9 | 1.7 | 0.00 | 0.03 | 0.03 | 96 | 1014.0 |
| 20260510003443 | 69 | 87 | 0.0 | 0.9 | 0.00 | 0.03 | 0.03 | 96 | 1014.1 |
| 20260510002942 | 69 | 163 | 0.9 | 1.7 | 0.00 | 0.03 | 0.03 | 95 | 1013.7 |
| 20260510002439 | 69 | 338 | 0.9 | 0.9 | 0.00 | 0.03 | 0.03 | 96 | 1013.4 |
| 20260510001935 | 69 | 87 | 0.9 | 0.9 | 0.00 | 0.03 | 0.03 | 95 | 1012.9 |
| 20260510001433 | 69 | 57 | 0.0 | 0.0 | 0.00 | 0.03 | 0.03 | 95 | 1012.6 |
| 20260510000930 | 69 | 62 | 1.7 | 1.7 | 0.00 | 0.03 | 0.03 | 95 | 1013.0 |
| 20260510000426 | 69 | 7 | 2.6 | 2.6 | 0.00 | 0.03 | 0.03 | 95 | 1012.9 |
| 20260509235923 | 69 | 55 | 1.7 | 1.7 | 0.00 | 0.03 | 0.03 | 95 | 1012.2 |
| 20260509235420 | 69 | 102 | 1.7 | 1.7 | 0.00 | 0.03 | 0.03 | 95 | 1012.1 |
| 20260509234916 | 69 | 128 | 2.6 | 3.5 | 0.00 | 0.03 | 0.03 | 94 | 1012.0 |
| 20260509234413 | 69 | 124 | 4.3 | 6.1 | 0.00 | 0.03 | 0.03 | 94 | 1012.0 |
| 20260509233911 | 69 | 135 | 2.6 | 5.2 | 0.00 | 0.03 | 0.03 | 94 | 1012.3 |
| 20260509233408 | 69 | 134 | 0.9 | 1.7 | 0.00 | 0.03 | 0.03 | 94 | 1012.4 |
| 20260509232904 | 70 | 125 | 0.9 | 1.7 | 0.00 | 0.03 | 0.03 | 93 | 1012.6 |
| 20260509232402 | 70 | 144 | 0.0 | 0.9 | 0.00 | 0.03 | 0.03 | 93 | 1012.8 |
| 20260509231857 | 70 | 50 | 0.0 | 0.9 | 0.00 | 0.03 | 0.03 | 93 | 1012.7 |
| 20260509231355 | 70 | 59 | 0.9 | 0.9 | 0.00 | 0.03 | 0.03 | 92 | 1013.0 |
| 20260509230853 | 70 | 92 | 0.9 | 0.9 | 0.00 | 0.03 | 0.03 | 92 | 1012.8 |
| 20260509230349 | 70 | 113 | 0.9 | 1.7 | 0.00 | 0.03 | 0.03 | 92 | 1012.9 |
| 20260509225844 | 70 | 110 | 1.7 | 1.7 | 0.00 | 0.03 | 0.03 | 92 | 1013.0 |